Las Vegas, Nevada
Traffic Map
Current Weather Conditions
Las Vegas, Nevada
Few Clouds
Few Clouds
83°
Feels Like: 83°
Wind Chill: 83° Ceiling: Unl
Heat Index: 83° Visibility: 10mi
Dew Point: 43° Wind: 0mph
Humidity: 24% Direction: ° ()
Pressure: 30in Gusts: 0mph
Raw Report DataKLAS 171456Z 00000KT 10SM FEW250 28/06 A3000 RMK AO2 SLP129 T02830061 52017
Traffic Incident Summary
Active as of:
Severity:
Category:
InformationThere was an issue retrieving the traffic information for this location. Please try a different location or try again shortly.
Advertisements